Power, Montana
Current Conditions -  °F | °C
As of 2:53 PM on Friday 24 Oct 2014 (Local Time) from KGTF Reporting Station
Clear Clear  
Wind Chill: 13°   Ceiling: Unl
Heat Index: 13°   Visibility: 10mi
Dew Point:   Wind: 15mph
Humidity: 44%   Direction: 210°SSW
Pressure: 30.01"   Gusts: NA
Location:  47.71°N, 111.69°W
Report Text: KGTF 242053Z 21013KT 10SM CLR 13/01 A3001 RMK AO2 SLP164 T01330011 58009
Loading
Personal Weather Stations






























Interactive Weather Map
Tropical Storm Tracking
New forecast layout! Learn more

10-Day Weather Forecast

Advertisements
Track Severe Weather on mobile